Time;durP1;ratioP1;P1;durP2;ratioP2;P2;SDS_P1;SDS_P2;PMS_P1;PMS_P2;Temp;Humidity;BMP_temperature;BMP_pressure;BME280_temperature;BME280_humidity;BME280_pressure;Samples;Min_cycle;Max_cycle;Signal;HPM_P1;HPM_P2
2023/09/16 00:01:20;;;;;;;9.20;6.63;;;;;;;;;;4969895;28;20130;-63
2023/09/16 00:03:47;;;;;;;9.88;7.22;;;;;;;;;;4967852;28;20474;-64
2023/09/16 00:06:14;;;;;;;9.55;7.18;;;;;;;;;;4967037;28;20070;-65
2023/09/16 00:08:43;;;;;;;11.18;7.00;;;;;;;;;;4962354;28;20133;-64
2023/09/16 00:11:10;;;;;;;9.20;6.73;;;;;;;;;;4970888;28;20050;-65
2023/09/16 00:13:38;;;;;;;10.68;6.45;;;;;;;;;;4970821;28;20101;-63
2023/09/16 00:16:05;;;;;;;9.77;6.68;;;;;;;;;;4973758;28;20414;-64
2023/09/16 00:18:33;;;;;;;9.50;7.15;;;;;;;;;;4970696;28;20039;-66
2023/09/16 00:20:59;;;;;;;10.27;7.97;;;;;;;;;;4975143;28;20054;-65
2023/09/16 00:23:26;;;;;;;8.27;7.10;;;;;;;;;;4965808;28;20047;-65
2023/09/16 00:25:53;;;;;;;11.52;6.85;;;;;;;;;;4974525;28;20078;-63
2023/09/16 00:28:19;;;;;;;9.15;7.35;;;;;;;;;;4977777;28;20133;-64
2023/09/16 00:30:48;;;;;;;10.20;7.65;;;;;;;;;;4969890;28;20053;-64
2023/09/16 00:33:14;;;;;;;9.45;7.30;;;;;;;;;;4969252;28;20121;-64
2023/09/16 00:35:43;;;;;;;9.57;7.47;;;;;;;;;;4975623;28;20059;-64
2023/09/16 00:38:09;;;;;;;9.38;7.47;;;;;;;;;;4961728;28;20415;-65
2023/09/16 00:40:36;;;;;;;10.85;7.45;;;;;;;;;;4965410;28;20047;-63
2023/09/16 00:43:03;;;;;;;9.52;7.28;;;;;;;;;;4969260;28;20061;-64
2023/09/16 00:45:30;;;;;;;10.00;7.28;;;;;;;;;;4961582;28;20455;-65
2023/09/16 00:47:57;;;;;;;9.07;6.40;;;;;;;;;;4962379;28;20494;-64
2023/09/16 00:50:24;;;;;;;9.10;7.10;;;;;;;;;;4956448;28;20134;-66
2023/09/16 00:52:54;;;;;;;9.18;7.60;;;;;;;;;;4967502;28;20054;-65
2023/09/16 00:55:22;;;;;;;10.15;7.63;;;;;;;;;;4969291;28;20137;-65
2023/09/16 00:57:50;;;;;;;10.00;7.25;;;;;;;;;;4958615;28;20141;-65
2023/09/16 01:00:17;;;;;;;10.70;7.82;;;;;;;;;;4965484;28;20051;-64
2023/09/16 01:02:45;;;;;;;10.80;7.72;;;;;;;;;;4966868;28;20302;-64
2023/09/16 01:05:14;;;;;;;9.30;7.32;;;;;;;;;;4974751;28;20043;-64
2023/09/16 01:07:42;;;;;;;9.88;7.13;;;;;;;;;;4972310;28;21241;-64
2023/09/16 01:10:11;;;;;;;10.02;7.53;;;;;;;;;;4971173;28;20423;-66
2023/09/16 01:12:38;;;;;;;9.80;7.55;;;;;;;;;;4963041;28;20051;-65
2023/09/16 01:15:07;;;;;;;8.77;7.32;;;;;;;;;;4968938;28;20129;-65
2023/09/16 01:17:37;;;;;;;9.52;7.53;;;;;;;;;;4975709;28;20050;-64
2023/09/16 01:20:08;;;;;;;10.57;7.88;;;;;;;;;;4968549;28;20061;-64
2023/09/16 01:22:35;;;;;;;8.98;7.40;;;;;;;;;;4956306;28;20055;-64
2023/09/16 01:25:05;;;;;;;8.73;6.53;;;;;;;;;;4966334;28;20455;-65
2023/09/16 01:27:32;;;;;;;10.38;6.88;;;;;;;;;;4971113;28;20494;-64
2023/09/16 01:29:59;;;;;;;11.18;7.47;;;;;;;;;;4963694;28;20506;-64
2023/09/16 01:32:33;;;;;;;10.73;7.68;;;;;;;;;;4961137;28;20053;-64
2023/09/16 01:35:04;;;;;;;9.50;7.40;;;;;;;;;;4963382;28;20069;-64
2023/09/16 01:37:32;;;;;;;10.40;7.35;;;;;;;;;;4969175;28;20050;-65
2023/09/16 01:40:00;;;;;;;8.73;6.63;;;;;;;;;;4957502;28;20051;-65
2023/09/16 01:42:30;;;;;;;11.65;6.95;;;;;;;;;;4970467;28;20047;-64
2023/09/16 01:44:56;;;;;;;11.15;7.72;;;;;;;;;;4960633;28;20410;-66
2023/09/16 01:47:23;;;;;;;12.02;7.47;;;;;;;;;;4965906;28;20043;-64
2023/09/16 01:49:50;;;;;;;10.18;7.95;;;;;;;;;;4964526;28;20487;-64
2023/09/16 01:52:17;;;;;;;9.82;7.28;;;;;;;;;;4962949;28;20053;-64
2023/09/16 01:54:43;;;;;;;10.75;8.00;;;;;;;;;;4961490;28;20055;-64
2023/09/16 01:57:10;;;;;;;9.52;6.85;;;;;;;;;;4961463;28;20424;-64
2023/09/16 01:59:39;;;;;;;10.20;7.53;;;;;;;;;;4965200;28;20055;-66
2023/09/16 02:02:06;;;;;;;10.27;7.55;;;;;;;;;;4966996;28;20051;-64
2023/09/16 02:04:32;;;;;;;9.55;7.38;;;;;;;;;;4955679;28;20138;-61
2023/09/16 02:06:59;;;;;;;10.70;7.80;;;;;;;;;;4957069;28;20047;-64
2023/09/16 02:09:26;;;;;;;11.07;8.18;;;;;;;;;;4956312;28;20047;-64
2023/09/16 02:11:52;;;;;;;10.27;7.35;;;;;;;;;;4963920;28;20530;-64
2023/09/16 02:14:20;;;;;;;9.73;7.65;;;;;;;;;;4967460;28;20070;-64
2023/09/16 02:16:48;;;;;;;11.07;7.65;;;;;;;;;;4957821;28;20102;-64
2023/09/16 02:19:15;;;;;;;10.05;7.28;;;;;;;;;;4962502;28;20491;-64
2023/09/16 02:21:42;;;;;;;11.50;7.10;;;;;;;;;;4958492;28;20054;-64
2023/09/16 02:24:08;;;;;;;9.25;6.55;;;;;;;;;;4972171;28;20141;-65
2023/09/16 02:26:35;;;;;;;10.57;7.47;;;;;;;;;;4963339;28;20470;-64
2023/09/16 02:29:02;;;;;;;9.48;7.57;;;;;;;;;;4972676;28;20089;-64
2023/09/16 02:31:28;;;;;;;9.55;6.93;;;;;;;;;;4965212;28;20081;-65
2023/09/16 02:33:57;;;;;;;10.07;7.60;;;;;;;;;;4969069;28;20075;-65
2023/09/16 02:36:24;;;;;;;8.80;6.88;;;;;;;;;;4957409;28;20047;-65
2023/09/16 02:38:51;;;;;;;12.40;7.65;;;;;;;;;;4966993;28;20474;-66
2023/09/16 02:41:18;;;;;;;10.10;7.47;;;;;;;;;;4963163;28;20129;-65
2023/09/16 02:43:46;;;;;;;9.77;7.75;;;;;;;;;;4966549;28;20057;-64
2023/09/16 02:46:13;;;;;;;10.48;7.70;;;;;;;;;;4959400;28;20046;-64
2023/09/16 02:48:40;;;;;;;10.65;7.95;;;;;;;;;;4961891;28;20046;-64
2023/09/16 02:51:09;;;;;;;10.52;7.50;;;;;;;;;;4961573;28;20130;-64
2023/09/16 02:53:36;;;;;;;10.63;8.10;;;;;;;;;;4964485;28;20051;-64
2023/09/16 02:56:03;;;;;;;10.38;7.43;;;;;;;;;;4971427;28;20052;-64
2023/09/16 02:58:30;;;;;;;10.05;7.88;;;;;;;;;;4959966;28;20522;-64
2023/09/16 03:00:56;;;;;;;10.30;7.72;;;;;;;;;;4970896;28;20149;-64
2023/09/16 03:03:23;;;;;;;10.57;7.78;;;;;;;;;;4958962;28;20057;-64
2023/09/16 03:05:50;;;;;;;10.85;7.32;;;;;;;;;;4959398;28;20079;-64
2023/09/16 03:08:19;;;;;;;10.18;7.70;;;;;;;;;;4967283;28;20131;-64
2023/09/16 03:10:46;;;;;;;11.17;8.13;;;;;;;;;;4966285;28;20139;-63
2023/09/16 03:13:13;;;;;;;9.75;7.13;;;;;;;;;;4972209;28;20061;-64
2023/09/16 03:15:44;;;;;;;10.43;7.47;;;;;;;;;;4962671;28;20047;-64
2023/09/16 03:18:10;;;;;;;11.35;7.55;;;;;;;;;;4953429;28;20050;-63
2023/09/16 03:20:37;;;;;;;12.52;7.72;;;;;;;;;;4962979;28;20441;-64
2023/09/16 03:23:04;;;;;;;10.27;7.63;;;;;;;;;;4970530;28;20053;-64
2023/09/16 03:25:32;;;;;;;9.63;7.30;;;;;;;;;;4970561;28;20328;-64
2023/09/16 03:28:00;;;;;;;9.90;7.32;;;;;;;;;;4970813;28;20134;-64
2023/09/16 03:30:27;;;;;;;10.10;8.13;;;;;;;;;;4973644;28;20065;-63
2023/09/16 03:32:54;;;;;;;10.38;7.70;;;;;;;;;;4972116;28;20413;-64
2023/09/16 03:35:24;;;;;;;10.23;8.00;;;;;;;;;;4964151;28;21713;-64
2023/09/16 03:37:51;;;;;;;;;;;;;;;;;;4964247;28;20061;-65
2023/09/16 03:40:17;;;;;;;11.65;8.50;;;;;;;;;;4965534;28;19945;-65
2023/09/16 03:42:45;;;;;;;11.73;8.48;;;;;;;;;;4966199;28;20053;-66
2023/09/16 03:45:12;;;;;;;12.13;7.97;;;;;;;;;;4963524;28;20081;-65
2023/09/16 03:47:39;;;;;;;12.48;8.18;;;;;;;;;;4968555;28;20046;-64
2023/09/16 03:50:07;;;;;;;10.45;8.25;;;;;;;;;;4976276;28;20050;-65
2023/09/16 03:52:33;;;;;;;12.60;8.93;;;;;;;;;;4965546;28;20062;-65
2023/09/16 03:55:02;;;;;;;11.10;8.18;;;;;;;;;;4974868;28;20045;-65
2023/09/16 03:57:29;;;;;;;11.10;8.13;;;;;;;;;;4965596;28;20050;-66
2023/09/16 03:59:57;;;;;;;11.70;8.07;;;;;;;;;;4963353;28;20083;-65
2023/09/16 04:02:24;;;;;;;10.77;7.78;;;;;;;;;;4962330;28;20054;-64
2023/09/16 04:04:50;;;;;;;11.70;8.02;;;;;;;;;;4964260;28;20396;-64
2023/09/16 04:07:17;;;;;;;11.40;8.00;;;;;;;;;;4964666;28;20047;-64
2023/09/16 04:09:44;;;;;;;10.20;7.82;;;;;;;;;;4972394;28;20134;-65
2023/09/16 04:12:10;;;;;;;10.98;8.63;;;;;;;;;;4970864;28;20516;-65
2023/09/16 04:14:37;;;;;;;10.02;7.97;;;;;;;;;;4966563;28;20102;-63
2023/09/16 04:17:05;;;;;;;11.60;8.05;;;;;;;;;;4959865;28;20134;-64
2023/09/16 04:19:32;;;;;;;11.75;8.00;;;;;;;;;;4966323;28;20047;-64
2023/09/16 04:21:58;;;;;;;11.00;8.30;;;;;;;;;;4961982;28;20043;-65
2023/09/16 04:24:25;;;;;;;10.00;8.30;;;;;;;;;;4975457;28;20043;-64
2023/09/16 04:26:52;;;;;;;11.13;8.45;;;;;;;;;;4971070;28;20139;-66
2023/09/16 04:29:18;;;;;;;10.13;7.40;;;;;;;;;;4956792;28;20083;-65
2023/09/16 04:31:45;;;;;;;12.43;8.43;;;;;;;;;;4983217;28;20053;-65
2023/09/16 04:34:14;;;;;;;12.23;8.70;;;;;;;;;;4968826;28;20422;-66
2023/09/16 04:36:41;;;;;;;11.30;8.32;;;;;;;;;;4974602;28;20070;-64
2023/09/16 04:39:08;;;;;;;12.10;8.27;;;;;;;;;;4969160;28;20066;-65
2023/09/16 04:41:35;;;;;;;11.18;8.02;;;;;;;;;;4973373;28;20078;-65
2023/09/16 04:44:02;;;;;;;11.15;8.63;;;;;;;;;;4986248;28;20493;-66
2023/09/16 04:46:29;;;;;;;11.40;8.90;;;;;;;;;;4964456;28;20061;-65
2023/09/16 04:48:56;;;;;;;13.20;9.30;;;;;;;;;;4975171;28;20051;-66
2023/09/16 04:51:24;;;;;;;12.00;8.18;;;;;;;;;;4974856;28;20093;-65
2023/09/16 04:53:51;;;;;;;12.75;9.25;;;;;;;;;;4973441;28;20426;-66
2023/09/16 04:56:17;;;;;;;12.05;8.70;;;;;;;;;;4964317;28;20055;-65
2023/09/16 04:58:44;;;;;;;13.13;9.25;;;;;;;;;;4963815;28;20054;-65
2023/09/16 05:01:12;;;;;;;12.63;9.30;;;;;;;;;;4960141;28;20051;-65
2023/09/16 05:03:39;;;;;;;13.32;9.18;;;;;;;;;;4965986;28;20054;-66
2023/09/16 05:06:05;;;;;;;12.95;9.35;;;;;;;;;;4980284;28;20215;-66
2023/09/16 05:08:33;;;;;;;13.52;8.98;;;;;;;;;;4976479;28;20487;-65
2023/09/16 05:11:00;;;;;;;11.43;9.25;;;;;;;;;;4968400;28;20082;-66
2023/09/16 05:13:28;;;;;;;14.20;10.77;;;;;;;;;;4973839;28;20049;-65
2023/09/16 05:15:55;;;;;;;13.13;10.00;;;;;;;;;;4958828;28;20048;-65
2023/09/16 05:18:21;;;;;;;14.32;9.57;;;;;;;;;;4958502;28;20050;-65
2023/09/16 05:20:51;;;;;;;13.50;9.57;;;;;;;;;;4963196;28;20069;-66
2023/09/16 05:23:17;;;;;;;14.15;9.52;;;;;;;;;;4970869;28;20046;-65
2023/09/16 05:25:49;;;;;;;13.15;9.43;;;;;;;;;;4973513;28;20054;-65
2023/09/16 05:28:16;;;;;;;12.82;9.23;;;;;;;;;;4974439;28;20447;-66
2023/09/16 05:30:43;;;;;;;13.63;9.27;;;;;;;;;;4968454;28;20134;-66
2023/09/16 05:33:10;;;;;;;13.45;9.90;;;;;;;;;;4959412;28;20054;-66
2023/09/16 05:35:37;;;;;;;14.13;9.43;;;;;;;;;;4968619;28;20051;-66
2023/09/16 05:38:04;;;;;;;13.13;9.45;;;;;;;;;;4973933;28;20133;-65
2023/09/16 05:40:30;;;;;;;16.20;10.73;;;;;;;;;;4970192;28;20043;-65
2023/09/16 05:42:58;;;;;;;12.85;9.82;;;;;;;;;;4974029;28;20055;-65
2023/09/16 05:45:25;;;;;;;16.55;10.13;;;;;;;;;;4972999;28;20126;-65
2023/09/16 05:47:52;;;;;;;15.45;11.20;;;;;;;;;;4972556;28;20466;-65
2023/09/16 05:50:18;;;;;;;15.20;11.32;;;;;;;;;;4973907;28;20055;-66
2023/09/16 05:52:45;;;;;;;14.40;10.55;;;;;;;;;;4978965;28;20125;-65
2023/09/16 05:55:12;;;;;;;15.75;11.55;;;;;;;;;;4967306;28;20039;-65
2023/09/16 05:57:38;;;;;;;15.65;11.15;;;;;;;;;;4970147;28;20057;-65
2023/09/16 06:00:08;;;;;;;16.75;11.48;;;;;;;;;;4960602;28;20051;-65
2023/09/16 06:02:38;;;;;;;15.88;11.32;;;;;;;;;;4971984;28;20133;-65
2023/09/16 06:05:07;;;;;;;14.85;11.05;;;;;;;;;;4960350;28;20134;-65
2023/09/16 06:07:33;;;;;;;15.65;10.73;;;;;;;;;;4955368;28;20054;-66
2023/09/16 06:10:00;;;;;;;16.80;11.82;;;;;;;;;;4978157;28;20133;-66
2023/09/16 06:12:26;;;;;;;15.32;10.55;;;;;;;;;;4965573;28;20066;-65
2023/09/16 06:14:53;;;;;;;15.98;10.85;;;;;;;;;;4981024;28;20046;-65
2023/09/16 06:17:22;;;;;;;15.32;11.02;;;;;;;;;;4986779;28;20043;-65
2023/09/16 06:19:52;;;;;;;14.67;10.77;;;;;;;;;;4984920;28;20128;-65
2023/09/16 06:22:19;;;;;;;16.30;11.57;;;;;;;;;;4984117;28;20530;-66
2023/09/16 06:24:45;;;;;;;15.85;10.82;;;;;;;;;;4981359;28;20042;-64
2023/09/16 06:27:14;;;;;;;15.15;10.52;;;;;;;;;;4981075;28;20053;-65
2023/09/16 06:29:40;;;;;;;15.00;10.48;;;;;;;;;;4963047;28;20479;-66
2023/09/16 06:32:07;;;;;;;13.07;9.18;;;;;;;;;;4966541;28;20046;-65
2023/09/16 06:34:35;;;;;;;14.55;10.65;;;;;;;;;;4965258;28;20418;-65
2023/09/16 06:37:03;;;;;;;14.05;9.88;;;;;;;;;;4975014;28;20142;-65
2023/09/16 06:39:29;;;;;;;13.30;9.57;;;;;;;;;;4972486;28;20046;-65
2023/09/16 06:41:56;;;;;;;12.80;10.00;;;;;;;;;;4973121;28;20057;-64
2023/09/16 06:44:22;;;;;;;14.98;10.75;;;;;;;;;;4967934;28;20049;-65
2023/09/16 06:46:49;;;;;;;13.98;10.55;;;;;;;;;;4967850;28;20050;-65
2023/09/16 06:49:18;;;;;;;12.95;9.68;;;;;;;;;;4964799;28;20053;-66
2023/09/16 06:51:46;;;;;;;13.65;9.73;;;;;;;;;;4972987;28;20050;-65
2023/09/16 06:54:13;;;;;;;13.82;11.07;;;;;;;;;;4972446;28;20130;-65
2023/09/16 06:56:39;;;;;;;13.80;10.65;;;;;;;;;;4967046;28;20494;-65
2023/09/16 06:59:06;;;;;;;11.75;9.25;;;;;;;;;;4976860;28;20060;-65
2023/09/16 07:01:34;;;;;;;13.95;10.40;;;;;;;;;;4970929;28;20192;-65
2023/09/16 07:04:00;;;;;;;14.55;9.52;;;;;;;;;;4973247;28;20042;-65
2023/09/16 07:06:27;;;;;;;12.45;10.13;;;;;;;;;;4972989;28;20047;-65
2023/09/16 07:08:55;;;;;;;12.77;9.93;;;;;;;;;;4973227;28;20042;-65
2023/09/16 07:11:22;;;;;;;14.38;10.60;;;;;;;;;;4971996;28;20141;-65
2023/09/16 07:13:48;;;;;;;13.45;10.00;;;;;;;;;;4972224;28;20050;-64
2023/09/16 07:16:18;;;;;;;14.63;9.75;;;;;;;;;;4972315;28;20415;-64
2023/09/16 07:18:45;;;;;;;13.80;10.05;;;;;;;;;;4987881;28;20057;-64
2023/09/16 07:21:12;;;;;;;15.25;10.23;;;;;;;;;;4991558;28;20074;-63
2023/09/16 07:23:38;;;;;;;12.32;10.07;;;;;;;;;;4991376;28;20074;-63
2023/09/16 07:26:07;;;;;;;13.80;9.85;;;;;;;;;;4991282;28;20046;-65
2023/09/16 07:28:34;;;;;;;13.93;10.45;;;;;;;;;;4985569;28;20043;-65
2023/09/16 07:31:00;;;;;;;13.27;9.52;;;;;;;;;;4958590;28;20051;-64
2023/09/16 07:33:27;;;;;;;15.27;10.15;;;;;;;;;;4952527;29;20054;-65
2023/09/16 07:35:53;;;;;;;12.75;9.85;;;;;;;;;;4952945;29;20134;-65
2023/09/16 07:38:20;;;;;;;13.02;9.90;;;;;;;;;;4952826;29;20043;-65
2023/09/16 07:40:47;;;;;;;16.95;10.82;;;;;;;;;;4952268;29;20143;-65
2023/09/16 07:43:16;;;;;;;12.88;10.10;;;;;;;;;;4952720;29;20070;-64
2023/09/16 07:45:43;;;;;;;14.20;10.07;;;;;;;;;;4966838;28;20516;-65
2023/09/16 07:48:09;;;;;;;16.48;10.50;;;;;;;;;;4952502;28;20809;-64
2023/09/16 07:50:36;;;;;;;14.00;9.98;;;;;;;;;;4952694;29;20047;-65
2023/09/16 07:53:03;;;;;;;14.80;11.07;;;;;;;;;;4952517;28;20562;-65
2023/09/16 07:55:30;;;;;;;13.52;10.43;;;;;;;;;;4953352;28;20051;-65
2023/09/16 07:57:56;;;;;;;14.82;10.90;;;;;;;;;;4971593;28;20051;-66
2023/09/16 08:00:24;;;;;;;13.65;10.45;;;;;;;;;;4971639;28;20494;-65
2023/09/16 08:02:51;;;;;;;13.55;10.88;;;;;;;;;;4971350;28;20053;-66
2023/09/16 08:05:17;;;;;;;14.35;10.55;;;;;;;;;;4971553;28;20442;-65
2023/09/16 08:07:44;;;;;;;12.98;10.38;;;;;;;;;;4972060;28;20042;-65
2023/09/16 08:10:11;;;;;;;13.25;10.13;;;;;;;;;;4936640;28;1119854;-65
2023/09/16 08:12:37;;;;;;;13.45;11.07;;;;;;;;;;4976008;28;20057;-65
2023/09/16 08:15:06;;;;;;;14.35;11.70;;;;;;;;;;4970280;28;20049;-64
2023/09/16 08:17:35;;;;;;;14.02;10.52;;;;;;;;;;4956320;29;20134;-65
2023/09/16 08:20:02;;;;;;;12.98;10.02;;;;;;;;;;4961826;28;20450;-65
2023/09/16 08:22:29;;;;;;;15.55;10.15;;;;;;;;;;4975605;28;20079;-65
2023/09/16 08:24:56;;;;;;;13.02;10.23;;;;;;;;;;4975836;28;20043;-65
2023/09/16 08:27:22;;;;;;;13.23;9.90;;;;;;;;;;4987003;28;20130;-65
2023/09/16 08:29:50;;;;;;;12.93;10.45;;;;;;;;;;4992230;28;20142;-64
2023/09/16 08:32:16;;;;;;;13.43;9.65;;;;;;;;;;4983929;28;20058;-65
2023/09/16 08:34:44;;;;;;;13.77;10.73;;;;;;;;;;4984607;28;20133;-64
2023/09/16 08:37:11;;;;;;;14.45;10.52;;;;;;;;;;4985010;28;20078;-65
2023/09/16 08:39:38;;;;;;;14.55;11.32;;;;;;;;;;4979247;28;20054;-65
2023/09/16 08:42:08;;;;;;;14.25;11.85;;;;;;;;;;4975514;28;20042;-64
2023/09/16 08:44:38;;;;;;;14.98;11.32;;;;;;;;;;4966394;28;20415;-64
2023/09/16 08:47:09;;;;;;;13.65;11.27;;;;;;;;;;4975485;28;20566;-65
2023/09/16 08:49:41;;;;;;;12.70;10.25;;;;;;;;;;4970570;28;20055;-64
2023/09/16 08:52:11;;;;;;;13.55;11.23;;;;;;;;;;4980622;28;20043;-64
2023/09/16 08:54:41;;;;;;;13.43;10.13;;;;;;;;;;4991531;28;20049;-64
2023/09/16 08:57:10;;;;;;;13.52;10.15;;;;;;;;;;4975367;28;20575;-65
2023/09/16 08:59:37;;;;;;;13.32;10.38;;;;;;;;;;4969735;28;20131;-64
2023/09/16 09:02:04;;;;;;;14.77;10.25;;;;;;;;;;4962297;28;20397;-66
2023/09/16 09:04:32;;;;;;;13.98;10.57;;;;;;;;;;4994546;28;20536;-66
2023/09/16 09:07:00;;;;;;;14.05;10.73;;;;;;;;;;4981732;28;20049;-65
2023/09/16 09:09:28;;;;;;;12.85;10.15;;;;;;;;;;4974956;28;20047;-63
2023/09/16 09:11:57;;;;;;;12.98;9.90;;;;;;;;;;4976275;28;20057;-64
2023/09/16 09:14:24;;;;;;;13.25;10.85;;;;;;;;;;4978052;28;20043;-65
2023/09/16 09:16:52;;;;;;;16.42;10.93;;;;;;;;;;4974596;28;20051;-63
2023/09/16 09:19:21;;;;;;;13.30;9.95;;;;;;;;;;4978258;28;20052;-63
2023/09/16 09:21:50;;;;;;;14.25;10.80;;;;;;;;;;4988668;28;20411;-64
2023/09/16 09:24:17;;;;;;;12.80;10.00;;;;;;;;;;4989033;28;20125;-65
2023/09/16 09:26:45;;;;;;;13.52;9.65;;;;;;;;;;4974625;28;20134;-63
2023/09/16 09:29:13;;;;;;;13.75;10.93;;;;;;;;;;4959944;28;20057;-64
2023/09/16 09:31:40;;;;;;;11.45;8.68;;;;;;;;;;4955086;28;20047;-64
2023/09/16 09:34:15;;;;;;;11.30;9.00;;;;;;;;;;4955730;29;20471;-65
2023/09/16 09:36:42;;;;;;;12.32;9.85;;;;;;;;;;4957642;28;20047;-64
2023/09/16 09:39:09;;;;;;;12.90;10.32;;;;;;;;;;4974735;28;20137;-64
2023/09/16 09:41:42;;;;;;;15.60;11.25;;;;;;;;;;4974652;28;20137;-65
2023/09/16 09:44:10;;;;;;;12.35;9.52;;;;;;;;;;4974234;28;20086;-63
2023/09/16 09:46:37;;;;;;;11.82;9.50;;;;;;;;;;4974318;28;20054;-64
2023/09/16 09:49:05;;;;;;;12.02;9.70;;;;;;;;;;4968829;28;20411;-64
2023/09/16 09:51:32;;;;;;;14.70;10.32;;;;;;;;;;4969143;28;20133;-64
2023/09/16 09:53:59;;;;;;;12.07;9.48;;;;;;;;;;4974262;28;20050;-65
2023/09/16 09:56:25;;;;;;;11.23;9.40;;;;;;;;;;4957562;28;20061;-64
2023/09/16 09:58:52;;;;;;;11.10;9.20;;;;;;;;;;4957043;28;20052;-65
2023/09/16 10:01:20;;;;;;;13.57;9.63;;;;;;;;;;4975353;28;20129;-65
2023/09/16 10:03:48;;;;;;;12.05;8.55;;;;;;;;;;4974379;28;20047;-63
2023/09/16 10:06:16;;;;;;;11.27;9.70;;;;;;;;;;4978162;28;20050;-64
2023/09/16 10:08:43;;;;;;;11.07;8.38;;;;;;;;;;4994234;28;20056;-65
2023/09/16 10:11:10;;;;;;;11.02;9.25;;;;;;;;;;4984293;28;20051;-64
2023/09/16 10:13:37;;;;;;;10.45;8.82;;;;;;;;;;4964393;28;20130;-65
2023/09/16 10:16:05;;;;;;;11.23;7.88;;;;;;;;;;4992398;28;20050;-65
2023/09/16 10:18:33;;;;;;;10.10;7.80;;;;;;;;;;4983897;28;20051;-64
2023/09/16 10:21:00;;;;;;;9.55;8.45;;;;;;;;;;4986070;28;20050;-65
2023/09/16 10:23:28;;;;;;;9.52;7.90;;;;;;;;;;4964938;28;20128;-64
2023/09/16 10:25:54;;;;;;;10.63;8.20;;;;;;;;;;4988324;28;20054;-64
2023/09/16 10:28:21;;;;;;;9.73;8.65;;;;;;;;;;4980404;28;20483;-64
2023/09/16 10:30:49;;;;;;;10.65;8.82;;;;;;;;;;4972925;28;20138;-64
2023/09/16 10:33:16;;;;;;;9.70;7.95;;;;;;;;;;4973346;28;20130;-64
2023/09/16 10:35:44;;;;;;;10.80;9.10;;;;;;;;;;4973477;28;20058;-65
2023/09/16 10:38:13;;;;;;;13.27;8.65;;;;;;;;;;4973484;28;20086;-64
2023/09/16 10:40:40;;;;;;;12.18;7.93;;;;;;;;;;4973465;28;20395;-64
2023/09/16 10:43:07;;;;;;;11.95;8.15;;;;;;;;;;4973470;28;20429;-65
2023/09/16 10:45:34;;;;;;;8.57;7.53;;;;;;;;;;4973308;28;20046;-65
2023/09/16 10:48:01;;;;;;;9.95;7.28;;;;;;;;;;4972812;28;20047;-65
2023/09/16 10:50:30;;;;;;;8.48;6.63;;;;;;;;;;4973289;28;20467;-63
2023/09/16 10:53:02;;;;;;;9.27;7.53;;;;;;;;;;4968830;28;20043;-64
2023/09/16 10:55:36;;;;;;;8.80;7.05;;;;;;;;;;4962972;28;20392;-64
2023/09/16 10:58:07;;;;;;;9.50;7.38;;;;;;;;;;4973424;28;20477;-64
2023/09/16 11:00:39;;;;;;;10.05;7.75;;;;;;;;;;4955558;28;20051;-69
2023/09/16 11:03:10;;;;;;;8.95;7.13;;;;;;;;;;4958554;28;20074;-72
2023/09/16 11:05:37;;;;;;;9.65;7.50;;;;;;;;;;4980462;28;20548;-66
2023/09/16 11:08:06;;;;;;;10.15;7.68;;;;;;;;;;4975447;28;20053;-65
2023/09/16 11:10:33;;;;;;;8.35;6.47;;;;;;;;;;4965634;28;20057;-65
2023/09/16 11:13:02;;;;;;;8.05;6.93;;;;;;;;;;4963728;28;20049;-67
2023/09/16 11:15:33;;;;;;;10.38;7.85;;;;;;;;;;4975379;28;20042;-70
2023/09/16 11:18:04;;;;;;;19.58;9.93;;;;;;;;;;4962893;28;20426;-68
2023/09/16 11:20:33;;;;;;;10.88;7.35;;;;;;;;;;4960563;28;20139;-63
2023/09/16 11:23:01;;;;;;;7.90;6.28;;;;;;;;;;4975404;28;20039;-68
2023/09/16 11:25:33;;;;;;;8.70;6.75;;;;;;;;;;4963194;28;20045;-65
2023/09/16 11:28:02;;;;;;;11.93;8.02;;;;;;;;;;4965477;28;20058;-64
2023/09/16 11:30:31;;;;;;;13.30;10.23;;;;;;;;;;4972633;28;20068;-63
2023/09/16 11:33:09;;;;;;;9.88;7.28;;;;;;;;;;4972601;28;20055;-62
2023/09/16 11:35:38;;;;;;;10.10;7.47;;;;;;;;;;4960755;28;20475;-63
2023/09/16 11:38:05;;;;;;;9.30;7.10;;;;;;;;;;4959300;28;20055;-62
2023/09/16 11:40:34;;;;;;;17.77;10.52;;;;;;;;;;4958037;28;20074;-61
2023/09/16 11:43:01;;;;;;;10.97;7.50;;;;;;;;;;4974068;28;20055;-62
2023/09/16 11:45:29;;;;;;;11.50;8.55;;;;;;;;;;4980462;28;20748;-60
2023/09/16 11:47:56;;;;;;;9.48;7.63;;;;;;;;;;4956853;28;20058;-62
2023/09/16 11:50:23;;;;;;;8.30;6.32;;;;;;;;;;4968770;28;20047;-64
2023/09/16 11:52:50;;;;;;;8.25;6.75;;;;;;;;;;4968915;28;20122;-65
2023/09/16 11:55:17;;;;;;;9.02;7.10;;;;;;;;;;4977962;28;20565;-63
2023/09/16 11:57:46;;;;;;;8.48;5.90;;;;;;;;;;4970125;28;20054;-70
2023/09/16 12:00:13;;;;;;;7.78;5.38;;;;;;;;;;4967677;28;20083;-66
2023/09/16 12:02:42;;;;;;;6.90;5.80;;;;;;;;;;4957162;29;20407;-66
2023/09/16 12:05:10;;;;;;;7.18;5.10;;;;;;;;;;4967465;28;20158;-66
2023/09/16 12:07:38;;;;;;;7.13;5.38;;;;;;;;;;4982577;28;20137;-66
2023/09/16 12:10:07;;;;;;;6.93;5.00;;;;;;;;;;4986185;28;20050;-66
2023/09/16 12:12:33;;;;;;;6.57;5.40;;;;;;;;;;4989395;28;20050;-67
2023/09/16 12:15:02;;;;;;;7.50;5.60;;;;;;;;;;4981219;28;20272;-66
2023/09/16 12:17:29;;;;;;;6.05;5.45;;;;;;;;;;4984417;28;20138;-66
2023/09/16 12:19:57;;;;;;;6.90;5.40;;;;;;;;;;4982611;28;20050;-67
2023/09/16 12:22:24;;;;;;;6.85;5.13;;;;;;;;;;4977641;28;20047;-66
2023/09/16 12:24:53;;;;;;;6.28;4.70;;;;;;;;;;4973809;28;20153;-66
2023/09/16 12:27:19;;;;;;;6.55;5.30;;;;;;;;;;4976941;28;20089;-66
2023/09/16 12:29:46;;;;;;;6.13;5.10;;;;;;;;;;4985209;28;20135;-66
2023/09/16 12:32:17;;;;;;;6.22;5.32;;;;;;;;;;4989747;28;20073;-66
2023/09/16 12:34:44;;;;;;;6.85;5.40;;;;;;;;;;4987968;28;20589;-67
2023/09/16 12:37:11;;;;;;;9.05;6.00;;;;;;;;;;4981568;28;20425;-66
2023/09/16 12:39:38;;;;;;;7.20;5.03;;;;;;;;;;4980483;28;20110;-66
2023/09/16 12:42:06;;;;;;;6.35;4.55;;;;;;;;;;4983200;28;20255;-66
2023/09/16 12:44:36;;;;;;;8.23;5.30;;;;;;;;;;4979561;28;20449;-66
2023/09/16 12:47:04;;;;;;;6.28;4.57;;;;;;;;;;4979023;28;20050;-67
2023/09/16 12:49:34;;;;;;;6.22;4.30;;;;;;;;;;4971154;28;20047;-66
2023/09/16 12:52:01;;;;;;;;;;;;;;;;;;4974606;28;20490;-66
2023/09/16 12:54:30;;;;;;;5.93;4.05;;;;;;;;;;4974690;28;20032;-66
2023/09/16 12:56:57;;;;;;;5.83;4.50;;;;;;;;;;4974214;28;20058;-66
2023/09/16 12:59:23;;;;;;;5.80;4.28;;;;;;;;;;4985454;28;20055;-66
2023/09/16 13:01:53;;;;;;;7.05;6.25;;;;;;;;;;4980090;28;20126;-67
2023/09/16 13:04:20;;;;;;;6.65;5.13;;;;;;;;;;4984766;28;20049;-66
2023/09/16 13:06:49;;;;;;;5.80;4.53;;;;;;;;;;4975466;28;20047;-66
2023/09/16 13:09:16;;;;;;;6.22;4.82;;;;;;;;;;4979381;28;20137;-67
2023/09/16 13:11:43;;;;;;;6.45;4.53;;;;;;;;;;4971218;28;20083;-67
2023/09/16 13:14:12;;;;;;;6.10;5.10;;;;;;;;;;4979534;28;20185;-67
2023/09/16 13:16:39;;;;;;;5.18;4.63;;;;;;;;;;4986841;28;20122;-67
2023/09/16 13:19:11;;;;;;;6.32;5.40;;;;;;;;;;4982050;28;20053;-67
2023/09/16 13:21:37;;;;;;;8.15;5.03;;;;;;;;;;4973026;28;20138;-66
2023/09/16 13:24:06;;;;;;;5.53;4.90;;;;;;;;;;4979868;28;20056;-67
2023/09/16 13:26:32;;;;;;;6.75;5.13;;;;;;;;;;4979567;28;20053;-66
2023/09/16 13:29:01;;;;;;;7.60;5.45;;;;;;;;;;4975284;28;20161;-66
2023/09/16 13:31:29;;;;;;;6.43;5.25;;;;;;;;;;4982065;28;20129;-66
2023/09/16 13:34:00;;;;;;;6.00;4.90;;;;;;;;;;4974642;28;20477;-64
2023/09/16 13:36:28;;;;;;;6.00;4.80;;;;;;;;;;4970681;28;20474;-65
2023/09/16 13:38:55;;;;;;;6.15;5.22;;;;;;;;;;4976659;28;20054;-65
2023/09/16 13:41:25;;;;;;;5.75;4.82;;;;;;;;;;4982461;28;20053;-66
2023/09/16 13:43:51;;;;;;;6.43;4.82;;;;;;;;;;4972416;28;20150;-66
2023/09/16 13:46:18;;;;;;;6.00;4.70;;;;;;;;;;4978801;28;20545;-66
2023/09/16 13:48:46;;;;;;;7.20;5.55;;;;;;;;;;4976920;28;20058;-66
2023/09/16 13:51:13;;;;;;;5.95;4.93;;;;;;;;;;4974495;28;20157;-65
2023/09/16 13:53:40;;;;;;;7.75;5.47;;;;;;;;;;4978435;28;20395;-65
2023/09/16 13:56:08;;;;;;;6.07;5.03;;;;;;;;;;4976434;28;20126;-65
2023/09/16 13:58:36;;;;;;;5.72;4.97;;;;;;;;;;4972865;28;20097;-66
2023/09/16 14:01:04;;;;;;;5.78;5.18;;;;;;;;;;4967833;28;20577;-66
2023/09/16 14:03:31;;;;;;;6.05;4.60;;;;;;;;;;4980197;28;20450;-66
2023/09/16 14:05:57;;;;;;;6.18;5.28;;;;;;;;;;4972743;28;20053;-66
2023/09/16 14:08:24;;;;;;;5.85;4.53;;;;;;;;;;4981625;28;20051;-65
2023/09/16 14:10:51;;;;;;;5.97;4.68;;;;;;;;;;4987461;28;20073;-65
2023/09/16 14:13:17;;;;;;;6.95;5.00;;;;;;;;;;4978335;28;20421;-65
2023/09/16 14:15:45;;;;;;;5.63;5.03;;;;;;;;;;4977604;28;20511;-65
2023/09/16 14:18:12;;;;;;;5.55;4.57;;;;;;;;;;4980511;28;20126;-65
2023/09/16 14:20:38;;;;;;;7.03;4.70;;;;;;;;;;4976335;28;20480;-65
2023/09/16 14:23:06;;;;;;;6.20;4.93;;;;;;;;;;4970156;28;20042;-65
2023/09/16 14:25:33;;;;;;;6.00;4.25;;;;;;;;;;4972395;28;20086;-65
2023/09/16 14:28:00;;;;;;;5.10;4.28;;;;;;;;;;4972341;28;20051;-66
2023/09/16 14:30:27;;;;;;;6.43;4.75;;;;;;;;;;4987635;28;20564;-65
2023/09/16 14:32:55;;;;;;;5.57;4.72;;;;;;;;;;4972120;28;20134;-65